sensor_id;sensor_type;location;lat;lon;timestamp;temperature;humidity
2282;DHT22;27486;48.77806476;9.16920056;2022-07-31T00:01:16;22.30;50.50
2282;DHT22;27486;48.77806476;9.16920056;2022-07-31T00:04:01;22.30;50.70
2282;DHT22;27486;48.77806476;9.16920056;2022-07-31T00:06:45;22.30;50.80
2282;DHT22;27486;48.77806476;9.16920056;2022-07-31T00:09:29;22.20;50.60
2282;DHT22;27486;48.77806476;9.16920056;2022-07-31T00:12:13;22.20;50.40
2282;DHT22;27486;48.77806476;9.16920056;2022-07-31T00:14:57;22.20;50.20
2282;DHT22;27486;48.77806476;9.16920056;2022-07-31T00:17:42;22.30;50.20
2282;DHT22;27486;48.77806476;9.16920056;2022-07-31T00:20:27;22.20;51.00
2282;DHT22;27486;48.77806476;9.16920056;2022-07-31T00:23:11;22.20;51.40
2282;DHT22;27486;48.77806476;9.16920056;2022-07-31T00:25:55;22.10;52.00
2282;DHT22;27486;48.77806476;9.16920056;2022-07-31T00:28:38;22.10;52.30
2282;DHT22;27486;48.77806476;9.16920056;2022-07-31T00:31:23;22.10;52.50
2282;DHT22;27486;48.77806476;9.16920056;2022-07-31T00:34:07;22.20;52.50
2282;DHT22;27486;48.77806476;9.16920056;2022-07-31T00:36:51;22.20;52.40
2282;DHT22;27486;48.77806476;9.16920056;2022-07-31T00:39:35;22.20;52.50
2282;DHT22;27486;48.77806476;9.16920056;2022-07-31T00:42:21;22.10;52.50
2282;DHT22;27486;48.77806476;9.16920056;2022-07-31T00:45:06;22.10;52.70
2282;DHT22;27486;48.77806476;9.16920056;2022-07-31T00:47:50;22.10;52.50
2282;DHT22;27486;48.77806476;9.16920056;2022-07-31T00:50:35;22.00;52.50
2282;DHT22;27486;48.77806476;9.16920056;2022-07-31T00:53:20;22.00;52.80
2282;DHT22;27486;48.77806476;9.16920056;2022-07-31T00:56:04;21.90;53.00
2282;DHT22;27486;48.77806476;9.16920056;2022-07-31T00:58:48;21.90;53.40
2282;DHT22;27486;48.77806476;9.16920056;2022-07-31T01:01:32;21.90;53.50
2282;DHT22;27486;48.77806476;9.16920056;2022-07-31T01:04:16;21.80;53.70
2282;DHT22;27486;48.77806476;9.16920056;2022-07-31T01:07:02;21.80;53.70
2282;DHT22;27486;48.77806476;9.16920056;2022-07-31T01:09:47;21.80;53.90
2282;DHT22;27486;48.77806476;9.16920056;2022-07-31T01:12:44;21.70;54.30
2282;DHT22;27486;48.77806476;9.16920056;2022-07-31T01:15:29;21.70;54.70
2282;DHT22;27486;48.77806476;9.16920056;2022-07-31T01:18:16;21.60;54.80
2282;DHT22;27486;48.77806476;9.16920056;2022-07-31T01:21:03;21.70;55.00
2282;DHT22;27486;48.77806476;9.16920056;2022-07-31T01:24:11;21.60;55.00
2282;DHT22;27486;48.77806476;9.16920056;2022-07-31T01:27:05;21.60;55.30
2282;DHT22;27486;48.77806476;9.16920056;2022-07-31T01:29:50;21.50;55.50
2282;DHT22;27486;48.77806476;9.16920056;2022-07-31T01:32:41;21.50;55.70
2282;DHT22;27486;48.77806476;9.16920056;2022-07-31T01:35:29;21.50;55.90
2282;DHT22;27486;48.77806476;9.16920056;2022-07-31T01:38:21;21.40;56.00
2282;DHT22;27486;48.77806476;9.16920056;2022-07-31T01:41:09;21.40;56.20
2282;DHT22;27486;48.77806476;9.16920056;2022-07-31T01:43:56;21.40;56.30
2282;DHT22;27486;48.77806476;9.16920056;2022-07-31T01:46:42;21.30;56.60
2282;DHT22;27486;48.77806476;9.16920056;2022-07-31T01:49:27;21.20;56.90
2282;DHT22;27486;48.77806476;9.16920056;2022-07-31T01:52:12;21.20;57.10
2282;DHT22;27486;48.77806476;9.16920056;2022-07-31T01:54:58;21.20;57.20
2282;DHT22;27486;48.77806476;9.16920056;2022-07-31T01:57:44;21.20;57.30
2282;DHT22;27486;48.77806476;9.16920056;2022-07-31T02:00:29;21.10;57.30
2282;DHT22;27486;48.77806476;9.16920056;2022-07-31T02:03:13;21.10;57.50
2282;DHT22;27486;48.77806476;9.16920056;2022-07-31T02:05:58;21.10;57.60
2282;DHT22;27486;48.77806476;9.16920056;2022-07-31T02:08:45;21.10;57.70
2282;DHT22;27486;48.77806476;9.16920056;2022-07-31T02:11:30;21.10;57.80
2282;DHT22;27486;48.77806476;9.16920056;2022-07-31T02:14:16;21.00;57.90
2282;DHT22;27486;48.77806476;9.16920056;2022-07-31T02:17:02;20.90;58.00
2282;DHT22;27486;48.77806476;9.16920056;2022-07-31T02:19:47;20.90;58.20
2282;DHT22;27486;48.77806476;9.16920056;2022-07-31T02:22:34;20.80;58.10
2282;DHT22;27486;48.77806476;9.16920056;2022-07-31T02:25:19;20.70;58.30
2282;DHT22;27486;48.77806476;9.16920056;2022-07-31T02:28:10;20.70;58.60
2282;DHT22;27486;48.77806476;9.16920056;2022-07-31T02:30:56;20.70;58.70
2282;DHT22;27486;48.77806476;9.16920056;2022-07-31T02:33:42;20.70;58.80
2282;DHT22;27486;48.77806476;9.16920056;2022-07-31T02:36:28;20.60;59.10
2282;DHT22;27486;48.77806476;9.16920056;2022-07-31T02:39:14;20.60;59.20
2282;DHT22;27486;48.77806476;9.16920056;2022-07-31T02:41:59;20.50;59.40
2282;DHT22;27486;48.77806476;9.16920056;2022-07-31T02:44:44;20.40;59.50
2282;DHT22;27486;48.77806476;9.16920056;2022-07-31T02:47:30;20.50;59.60
2282;DHT22;27486;48.77806476;9.16920056;2022-07-31T02:50:15;20.50;59.60
2282;DHT22;27486;48.77806476;9.16920056;2022-07-31T02:53:00;20.40;59.80
2282;DHT22;27486;48.77806476;9.16920056;2022-07-31T02:55:45;20.40;59.80
2282;DHT22;27486;48.77806476;9.16920056;2022-07-31T02:58:29;20.40;59.90
2282;DHT22;27486;48.77806476;9.16920056;2022-07-31T03:01:14;20.40;60.20
2282;DHT22;27486;48.77806476;9.16920056;2022-07-31T03:03:58;20.40;60.10
2282;DHT22;27486;48.77806476;9.16920056;2022-07-31T03:06:42;20.40;60.10
2282;DHT22;27486;48.77806476;9.16920056;2022-07-31T03:09:27;20.40;60.20
2282;DHT22;27486;48.77806476;9.16920056;2022-07-31T03:12:11;20.40;60.50
2282;DHT22;27486;48.77806476;9.16920056;2022-07-31T03:14:55;20.20;61.30
2282;DHT22;27486;48.77806476;9.16920056;2022-07-31T03:17:41;20.20;61.70
2282;DHT22;27486;48.77806476;9.16920056;2022-07-31T03:20:26;20.20;61.80
2282;DHT22;27486;48.77806476;9.16920056;2022-07-31T03:23:12;20.20;62.40
2282;DHT22;27486;48.77806476;9.16920056;2022-07-31T03:25:57;20.20;62.50
2282;DHT22;27486;48.77806476;9.16920056;2022-07-31T03:28:42;20.20;62.40
2282;DHT22;27486;48.77806476;9.16920056;2022-07-31T03:31:26;20.20;62.60
2282;DHT22;27486;48.77806476;9.16920056;2022-07-31T03:34:10;20.20;62.80
2282;DHT22;27486;48.77806476;9.16920056;2022-07-31T03:36:55;20.20;63.10
2282;DHT22;27486;48.77806476;9.16920056;2022-07-31T03:39:40;20.10;63.10
2282;DHT22;27486;48.77806476;9.16920056;2022-07-31T03:42:24;20.10;63.60
2282;DHT22;27486;48.77806476;9.16920056;2022-07-31T03:45:10;20.10;63.80
2282;DHT22;27486;48.77806476;9.16920056;2022-07-31T03:47:55;19.90;64.10
2282;DHT22;27486;48.77806476;9.16920056;2022-07-31T03:50:40;20.00;64.20
2282;DHT22;27486;48.77806476;9.16920056;2022-07-31T03:53:25;20.00;64.80
2282;DHT22;27486;48.77806476;9.16920056;2022-07-31T03:56:10;20.00;63.80
2282;DHT22;27486;48.77806476;9.16920056;2022-07-31T03:58:54;20.10;63.30
2282;DHT22;27486;48.77806476;9.16920056;2022-07-31T04:01:38;20.10;62.90
2282;DHT22;27486;48.77806476;9.16920056;2022-07-31T04:04:23;20.20;62.80
2282;DHT22;27486;48.77806476;9.16920056;2022-07-31T04:07:07;20.20;62.80
2282;DHT22;27486;48.77806476;9.16920056;2022-07-31T04:09:51;20.10;62.70
2282;DHT22;27486;48.77806476;9.16920056;2022-07-31T04:12:35;20.00;62.80
2282;DHT22;27486;48.77806476;9.16920056;2022-07-31T04:15:19;20.10;62.90
2282;DHT22;27486;48.77806476;9.16920056;2022-07-31T04:18:03;20.10;63.10
2282;DHT22;27486;48.77806476;9.16920056;2022-07-31T04:20:47;20.10;63.10
2282;DHT22;27486;48.77806476;9.16920056;2022-07-31T04:23:32;20.10;63.30
2282;DHT22;27486;48.77806476;9.16920056;2022-07-31T04:26:16;20.20;63.20
2282;DHT22;27486;48.77806476;9.16920056;2022-07-31T04:29:00;20.20;63.20
2282;DHT22;27486;48.77806476;9.16920056;2022-07-31T04:31:44;20.20;63.30
2282;DHT22;27486;48.77806476;9.16920056;2022-07-31T04:34:28;20.30;63.50
2282;DHT22;27486;48.77806476;9.16920056;2022-07-31T04:37:12;20.20;63.50
2282;DHT22;27486;48.77806476;9.16920056;2022-07-31T04:39:56;20.20;63.90
2282;DHT22;27486;48.77806476;9.16920056;2022-07-31T04:42:40;20.30;63.60
2282;DHT22;27486;48.77806476;9.16920056;2022-07-31T04:45:24;20.40;63.20
2282;DHT22;27486;48.77806476;9.16920056;2022-07-31T04:48:09;20.50;62.90
2282;DHT22;27486;48.77806476;9.16920056;2022-07-31T04:50:53;20.60;62.50
2282;DHT22;27486;48.77806476;9.16920056;2022-07-31T04:53:37;20.70;62.20
2282;DHT22;27486;48.77806476;9.16920056;2022-07-31T04:56:21;20.80;61.90
2282;DHT22;27486;48.77806476;9.16920056;2022-07-31T04:59:24;20.90;61.40
2282;DHT22;27486;48.77806476;9.16920056;2022-07-31T05:02:08;21.00;61.00
2282;DHT22;27486;48.77806476;9.16920056;2022-07-31T05:04:52;21.10;60.70
2282;DHT22;27486;48.77806476;9.16920056;2022-07-31T05:07:36;21.20;60.60
2282;DHT22;27486;48.77806476;9.16920056;2022-07-31T05:10:20;21.30;60.00
2282;DHT22;27486;48.77806476;9.16920056;2022-07-31T05:13:23;21.40;59.90
2282;DHT22;27486;48.77806476;9.16920056;2022-07-31T05:16:10;21.60;59.40
2282;DHT22;27486;48.77806476;9.16920056;2022-07-31T05:18:55;21.70;58.90
2282;DHT22;27486;48.77806476;9.16920056;2022-07-31T05:21:40;21.80;58.30
2282;DHT22;27486;48.77806476;9.16920056;2022-07-31T05:24:24;22.00;58.40
2282;DHT22;27486;48.77806476;9.16920056;2022-07-31T05:27:08;22.10;58.10
2282;DHT22;27486;48.77806476;9.16920056;2022-07-31T05:29:52;22.10;58.00
2282;DHT22;27486;48.77806476;9.16920056;2022-07-31T05:32:37;22.30;57.60
2282;DHT22;27486;48.77806476;9.16920056;2022-07-31T05:35:21;22.40;57.30
2282;DHT22;27486;48.77806476;9.16920056;2022-07-31T05:38:05;22.50;56.80
2282;DHT22;27486;48.77806476;9.16920056;2022-07-31T05:40:49;22.50;56.30
2282;DHT22;27486;48.77806476;9.16920056;2022-07-31T05:43:34;22.60;56.20
2282;DHT22;27486;48.77806476;9.16920056;2022-07-31T05:46:17;22.60;56.10
2282;DHT22;27486;48.77806476;9.16920056;2022-07-31T05:49:02;22.70;55.70
2282;DHT22;27486;48.77806476;9.16920056;2022-07-31T05:51:46;22.70;56.00
2282;DHT22;27486;48.77806476;9.16920056;2022-07-31T05:54:30;22.70;56.10
2282;DHT22;27486;48.77806476;9.16920056;2022-07-31T05:57:16;22.80;56.20
2282;DHT22;27486;48.77806476;9.16920056;2022-07-31T06:00:00;22.90;56.10
2282;DHT22;27486;48.77806476;9.16920056;2022-07-31T06:02:44;23.00;56.30
2282;DHT22;27486;48.77806476;9.16920056;2022-07-31T06:05:29;23.00;55.30
2282;DHT22;27486;48.77806476;9.16920056;2022-07-31T06:08:13;23.00;55.60
2282;DHT22;27486;48.77806476;9.16920056;2022-07-31T06:10:57;23.10;55.80
2282;DHT22;27486;48.77806476;9.16920056;2022-07-31T06:13:42;23.20;55.50
2282;DHT22;27486;48.77806476;9.16920056;2022-07-31T06:16:26;23.30;55.10
2282;DHT22;27486;48.77806476;9.16920056;2022-07-31T06:19:10;23.30;55.40
2282;DHT22;27486;48.77806476;9.16920056;2022-07-31T06:21:54;23.40;55.20
2282;DHT22;27486;48.77806476;9.16920056;2022-07-31T06:24:38;23.50;54.40
2282;DHT22;27486;48.77806476;9.16920056;2022-07-31T06:27:22;23.60;54.40
2282;DHT22;27486;48.77806476;9.16920056;2022-07-31T06:30:06;23.80;54.20
2282;DHT22;27486;48.77806476;9.16920056;2022-07-31T06:32:50;23.90;54.20
2282;DHT22;27486;48.77806476;9.16920056;2022-07-31T06:35:34;24.00;54.10
2282;DHT22;27486;48.77806476;9.16920056;2022-07-31T06:38:18;24.00;54.00
2282;DHT22;27486;48.77806476;9.16920056;2022-07-31T06:41:02;24.10;54.50
2282;DHT22;27486;48.77806476;9.16920056;2022-07-31T06:43:46;24.10;54.80
2282;DHT22;27486;48.77806476;9.16920056;2022-07-31T06:46:30;24.20;54.70
2282;DHT22;27486;48.77806476;9.16920056;2022-07-31T06:49:15;24.20;55.00
2282;DHT22;27486;48.77806476;9.16920056;2022-07-31T06:51:58;24.30;55.10
2282;DHT22;27486;48.77806476;9.16920056;2022-07-31T06:54:42;24.40;55.00
2282;DHT22;27486;48.77806476;9.16920056;2022-07-31T06:57:26;24.60;54.70
2282;DHT22;27486;48.77806476;9.16920056;2022-07-31T07:00:11;24.70;54.90
2282;DHT22;27486;48.77806476;9.16920056;2022-07-31T07:02:55;24.90;54.20
2282;DHT22;27486;48.77806476;9.16920056;2022-07-31T07:05:39;24.90;54.10
2282;DHT22;27486;48.77806476;9.16920056;2022-07-31T07:08:24;24.90;53.80
2282;DHT22;27486;48.77806476;9.16920056;2022-07-31T07:11:08;25.00;53.60
2282;DHT22;27486;48.77806476;9.16920056;2022-07-31T07:13:51;25.10;53.70
2282;DHT22;27486;48.77806476;9.16920056;2022-07-31T07:16:35;25.20;53.20
2282;DHT22;27486;48.77806476;9.16920056;2022-07-31T07:19:19;25.30;53.30
2282;DHT22;27486;48.77806476;9.16920056;2022-07-31T07:22:03;25.50;53.00
2282;DHT22;27486;48.77806476;9.16920056;2022-07-31T07:24:48;25.70;52.50
2282;DHT22;27486;48.77806476;9.16920056;2022-07-31T07:27:32;25.80;52.00
2282;DHT22;27486;48.77806476;9.16920056;2022-07-31T07:30:16;26.00;51.70
2282;DHT22;27486;48.77806476;9.16920056;2022-07-31T07:33:00;26.20;51.30
2282;DHT22;27486;48.77806476;9.16920056;2022-07-31T07:35:44;26.30;50.90
2282;DHT22;27486;48.77806476;9.16920056;2022-07-31T07:38:28;26.50;50.60
2282;DHT22;27486;48.77806476;9.16920056;2022-07-31T07:41:12;26.70;49.90
2282;DHT22;27486;48.77806476;9.16920056;2022-07-31T07:43:56;26.80;49.20
2282;DHT22;27486;48.77806476;9.16920056;2022-07-31T07:46:40;27.00;48.90
2282;DHT22;27486;48.77806476;9.16920056;2022-07-31T07:49:24;27.20;48.80
2282;DHT22;27486;48.77806476;9.16920056;2022-07-31T07:52:08;27.30;48.20
2282;DHT22;27486;48.77806476;9.16920056;2022-07-31T07:54:52;27.50;47.70
2282;DHT22;27486;48.77806476;9.16920056;2022-07-31T07:57:36;27.60;47.40
2282;DHT22;27486;48.77806476;9.16920056;2022-07-31T08:00:20;27.60;47.10
2282;DHT22;27486;48.77806476;9.16920056;2022-07-31T08:03:04;27.80;46.70
2282;DHT22;27486;48.77806476;9.16920056;2022-07-31T08:05:48;27.90;46.10
2282;DHT22;27486;48.77806476;9.16920056;2022-07-31T08:08:32;28.00;45.90
2282;DHT22;27486;48.77806476;9.16920056;2022-07-31T08:11:16;28.10;45.60
2282;DHT22;27486;48.77806476;9.16920056;2022-07-31T08:14:00;28.20;45.20
2282;DHT22;27486;48.77806476;9.16920056;2022-07-31T08:16:44;28.30;44.90
2282;DHT22;27486;48.77806476;9.16920056;2022-07-31T08:19:28;28.40;44.50
2282;DHT22;27486;48.77806476;9.16920056;2022-07-31T08:22:12;28.50;44.70
2282;DHT22;27486;48.77806476;9.16920056;2022-07-31T08:24:56;28.50;44.70
2282;DHT22;27486;48.77806476;9.16920056;2022-07-31T08:27:40;28.50;44.40
2282;DHT22;27486;48.77806476;9.16920056;2022-07-31T08:30:25;28.50;44.60
2282;DHT22;27486;48.77806476;9.16920056;2022-07-31T08:33:09;28.50;44.70
2282;DHT22;27486;48.77806476;9.16920056;2022-07-31T08:35:53;28.40;44.80
2282;DHT22;27486;48.77806476;9.16920056;2022-07-31T08:38:37;28.40;45.00
2282;DHT22;27486;48.77806476;9.16920056;2022-07-31T08:41:21;28.40;44.50
2282;DHT22;27486;48.77806476;9.16920056;2022-07-31T08:44:06;28.40;44.80
2282;DHT22;27486;48.77806476;9.16920056;2022-07-31T08:46:54;28.30;45.00
2282;DHT22;27486;48.77806476;9.16920056;2022-07-31T08:49:43;28.40;45.20
2282;DHT22;27486;48.77806476;9.16920056;2022-07-31T08:52:29;28.50;45.40
2282;DHT22;27486;48.77806476;9.16920056;2022-07-31T08:55:15;28.50;45.10
2282;DHT22;27486;48.77806476;9.16920056;2022-07-31T08:57:58;28.40;45.20
2282;DHT22;27486;48.77806476;9.16920056;2022-07-31T09:00:42;28.30;45.60
2282;DHT22;27486;48.77806476;9.16920056;2022-07-31T09:03:27;28.40;45.50
2282;DHT22;27486;48.77806476;9.16920056;2022-07-31T09:06:11;28.70;45.30
2282;DHT22;27486;48.77806476;9.16920056;2022-07-31T09:08:55;28.90;44.50
2282;DHT22;27486;48.77806476;9.16920056;2022-07-31T09:11:48;29.10;43.20
2282;DHT22;27486;48.77806476;9.16920056;2022-07-31T09:14:33;29.00;41.70
2282;DHT22;27486;48.77806476;9.16920056;2022-07-31T09:17:17;28.90;42.00
2282;DHT22;27486;48.77806476;9.16920056;2022-07-31T09:20:21;28.90;42.50
2282;DHT22;27486;48.77806476;9.16920056;2022-07-31T09:23:07;29.20;42.40
2282;DHT22;27486;48.77806476;9.16920056;2022-07-31T09:25:57;29.30;41.90
2282;DHT22;27486;48.77806476;9.16920056;2022-07-31T09:28:46;29.40;41.00
2282;DHT22;27486;48.77806476;9.16920056;2022-07-31T09:31:33;29.50;40.50
2282;DHT22;27486;48.77806476;9.16920056;2022-07-31T09:34:26;29.40;40.20
2282;DHT22;27486;48.77806476;9.16920056;2022-07-31T09:37:12;29.50;41.00
2282;DHT22;27486;48.77806476;9.16920056;2022-07-31T09:39:56;29.80;39.40
2282;DHT22;27486;48.77806476;9.16920056;2022-07-31T09:42:41;30.10;39.40
2282;DHT22;27486;48.77806476;9.16920056;2022-07-31T09:45:28;30.50;39.40
2282;DHT22;27486;48.77806476;9.16920056;2022-07-31T09:48:12;31.00;37.20
2282;DHT22;27486;48.77806476;9.16920056;2022-07-31T09:53:45;31.80;35.30
2282;DHT22;27486;48.77806476;9.16920056;2022-07-31T09:56:32;32.20;34.10
2282;DHT22;27486;48.77806476;9.16920056;2022-07-31T09:59:17;32.50;32.80
2282;DHT22;27486;48.77806476;9.16920056;2022-07-31T10:02:01;32.60;32.00
2282;DHT22;27486;48.77806476;9.16920056;2022-07-31T10:04:45;32.50;31.50
2282;DHT22;27486;48.77806476;9.16920056;2022-07-31T10:07:31;32.60;31.20
2282;DHT22;27486;48.77806476;9.16920056;2022-07-31T10:10:21;32.60;30.70
2282;DHT22;27486;48.77806476;9.16920056;2022-07-31T10:13:07;32.70;30.80
2282;DHT22;27486;48.77806476;9.16920056;2022-07-31T10:15:54;32.80;30.60
2282;DHT22;27486;48.77806476;9.16920056;2022-07-31T10:18:46;32.80;30.50
2282;DHT22;27486;48.77806476;9.16920056;2022-07-31T10:21:37;32.50;30.20
2282;DHT22;27486;48.77806476;9.16920056;2022-07-31T10:24:25;32.30;30.20
2282;DHT22;27486;48.77806476;9.16920056;2022-07-31T10:27:11;32.20;30.30
2282;DHT22;27486;48.77806476;9.16920056;2022-07-31T10:29:57;32.30;30.00
2282;DHT22;27486;48.77806476;9.16920056;2022-07-31T10:32:42;32.10;29.70
2282;DHT22;27486;48.77806476;9.16920056;2022-07-31T10:35:26;31.90;29.90
2282;DHT22;27486;48.77806476;9.16920056;2022-07-31T10:38:19;32.00;30.10
2282;DHT22;27486;48.77806476;9.16920056;2022-07-31T10:41:14;32.10;30.00
2282;DHT22;27486;48.77806476;9.16920056;2022-07-31T10:44:08;32.20;30.00
2282;DHT22;27486;48.77806476;9.16920056;2022-07-31T10:46:54;32.40;29.80
2282;DHT22;27486;48.77806476;9.16920056;2022-07-31T10:49:46;32.40;29.50
2282;DHT22;27486;48.77806476;9.16920056;2022-07-31T10:52:36;32.40;29.40
2282;DHT22;27486;48.77806476;9.16920056;2022-07-31T10:55:22;32.30;29.30
2282;DHT22;27486;48.77806476;9.16920056;2022-07-31T10:58:14;32.10;29.60
2282;DHT22;27486;48.77806476;9.16920056;2022-07-31T11:01:06;32.10;29.80
2282;DHT22;27486;48.77806476;9.16920056;2022-07-31T11:03:59;32.10;29.90
2282;DHT22;27486;48.77806476;9.16920056;2022-07-31T11:06:44;32.20;30.00
2282;DHT22;27486;48.77806476;9.16920056;2022-07-31T11:09:30;32.40;30.50
2282;DHT22;27486;48.77806476;9.16920056;2022-07-31T11:12:18;32.60;30.40
2282;DHT22;27486;48.77806476;9.16920056;2022-07-31T11:15:03;32.90;30.20
2282;DHT22;27486;48.77806476;9.16920056;2022-07-31T11:17:47;33.10;29.70
2282;DHT22;27486;48.77806476;9.16920056;2022-07-31T11:20:31;33.30;29.90
2282;DHT22;27486;48.77806476;9.16920056;2022-07-31T11:23:16;33.50;30.20
2282;DHT22;27486;48.77806476;9.16920056;2022-07-31T11:26:04;33.80;30.30
2282;DHT22;27486;48.77806476;9.16920056;2022-07-31T11:28:49;34.10;29.80
2282;DHT22;27486;48.77806476;9.16920056;2022-07-31T11:31:34;34.40;29.20
2282;DHT22;27486;48.77806476;9.16920056;2022-07-31T11:34:17;33.00;39.50
2282;DHT22;27486;48.77806476;9.16920056;2022-07-31T11:42:41;34.80;26.70
2282;DHT22;27486;48.77806476;9.16920056;2022-07-31T11:45:26;34.80;26.80
2282;DHT22;27486;48.77806476;9.16920056;2022-07-31T11:48:13;33.00;30.00
2282;DHT22;27486;48.77806476;9.16920056;2022-07-31T11:50:58;34.70;27.10
2282;DHT22;27486;48.77806476;9.16920056;2022-07-31T11:53:43;34.50;26.70
2282;DHT22;27486;48.77806476;9.16920056;2022-07-31T11:56:28;34.70;27.20
2282;DHT22;27486;48.77806476;9.16920056;2022-07-31T11:59:12;34.80;26.90
2282;DHT22;27486;48.77806476;9.16920056;2022-07-31T12:02:11;34.90;27.00
2282;DHT22;27486;48.77806476;9.16920056;2022-07-31T12:04:55;35.10;27.00
2282;DHT22;27486;48.77806476;9.16920056;2022-07-31T12:07:40;35.30;27.00
2282;DHT22;27486;48.77806476;9.16920056;2022-07-31T12:10:25;35.40;26.90
2282;DHT22;27486;48.77806476;9.16920056;2022-07-31T12:13:11;35.40;26.70
2282;DHT22;27486;48.77806476;9.16920056;2022-07-31T12:16:01;35.40;26.60
2282;DHT22;27486;48.77806476;9.16920056;2022-07-31T12:18:56;35.40;26.30
2282;DHT22;27486;48.77806476;9.16920056;2022-07-31T12:21:42;35.40;26.80
2282;DHT22;27486;48.77806476;9.16920056;2022-07-31T12:24:26;35.40;27.30
2282;DHT22;27486;48.77806476;9.16920056;2022-07-31T12:27:15;35.60;26.80
2282;DHT22;27486;48.77806476;9.16920056;2022-07-31T12:29:59;35.70;26.80
2282;DHT22;27486;48.77806476;9.16920056;2022-07-31T12:33:03;35.90;26.90
2282;DHT22;27486;48.77806476;9.16920056;2022-07-31T12:35:48;36.10;26.40
2282;DHT22;27486;48.77806476;9.16920056;2022-07-31T12:38:32;36.40;26.60
2282;DHT22;27486;48.77806476;9.16920056;2022-07-31T12:41:16;36.50;26.30
2282;DHT22;27486;48.77806476;9.16920056;2022-07-31T12:44:12;36.60;25.90
2282;DHT22;27486;48.77806476;9.16920056;2022-07-31T12:46:57;36.60;25.50
2282;DHT22;27486;48.77806476;9.16920056;2022-07-31T12:49:40;36.50;25.60
2282;DHT22;27486;48.77806476;9.16920056;2022-07-31T12:52:29;36.50;25.70
2282;DHT22;27486;48.77806476;9.16920056;2022-07-31T12:55:14;36.40;25.80
2282;DHT22;27486;48.77806476;9.16920056;2022-07-31T12:57:59;36.40;25.70
2282;DHT22;27486;48.77806476;9.16920056;2022-07-31T13:00:43;36.40;24.80
2282;DHT22;27486;48.77806476;9.16920056;2022-07-31T13:03:28;36.50;24.50
2282;DHT22;27486;48.77806476;9.16920056;2022-07-31T13:06:15;36.60;24.90
2282;DHT22;27486;48.77806476;9.16920056;2022-07-31T13:08:59;36.70;25.10
2282;DHT22;27486;48.77806476;9.16920056;2022-07-31T13:11:43;36.80;25.00
2282;DHT22;27486;48.77806476;9.16920056;2022-07-31T13:14:27;36.80;24.40
2282;DHT22;27486;48.77806476;9.16920056;2022-07-31T13:17:11;36.90;24.00
2282;DHT22;27486;48.77806476;9.16920056;2022-07-31T13:19:55;36.90;24.70
2282;DHT22;27486;48.77806476;9.16920056;2022-07-31T13:22:39;37.00;24.20
2282;DHT22;27486;48.77806476;9.16920056;2022-07-31T13:25:24;37.00;24.30
2282;DHT22;27486;48.77806476;9.16920056;2022-07-31T13:28:09;36.40;23.30
2282;DHT22;27486;48.77806476;9.16920056;2022-07-31T13:30:53;36.10;23.50
2282;DHT22;27486;48.77806476;9.16920056;2022-07-31T13:33:37;35.90;23.80
2282;DHT22;27486;48.77806476;9.16920056;2022-07-31T13:36:22;35.80;24.20
2282;DHT22;27486;48.77806476;9.16920056;2022-07-31T13:39:09;35.70;24.00
2282;DHT22;27486;48.77806476;9.16920056;2022-07-31T13:41:53;35.70;24.10
2282;DHT22;27486;48.77806476;9.16920056;2022-07-31T13:44:37;35.80;24.10
2282;DHT22;27486;48.77806476;9.16920056;2022-07-31T13:47:21;35.70;24.10
2282;DHT22;27486;48.77806476;9.16920056;2022-07-31T13:50:05;35.60;23.90
2282;DHT22;27486;48.77806476;9.16920056;2022-07-31T13:52:49;35.70;23.80
2282;DHT22;27486;48.77806476;9.16920056;2022-07-31T13:55:34;36.00;24.10
2282;DHT22;27486;48.77806476;9.16920056;2022-07-31T13:58:19;36.40;24.20
2282;DHT22;27486;48.77806476;9.16920056;2022-07-31T14:01:04;36.60;23.40
2282;DHT22;27486;48.77806476;9.16920056;2022-07-31T14:03:48;36.40;23.10
2282;DHT22;27486;48.77806476;9.16920056;2022-07-31T14:06:32;36.10;22.80
2282;DHT22;27486;48.77806476;9.16920056;2022-07-31T14:09:16;35.80;23.10
2282;DHT22;27486;48.77806476;9.16920056;2022-07-31T14:12:00;35.40;23.00
2282;DHT22;27486;48.77806476;9.16920056;2022-07-31T14:14:45;35.20;23.60
2282;DHT22;27486;48.77806476;9.16920056;2022-07-31T14:17:29;35.00;23.80
2282;DHT22;27486;48.77806476;9.16920056;2022-07-31T14:20:14;35.10;23.90
2282;DHT22;27486;48.77806476;9.16920056;2022-07-31T14:22:59;35.00;23.60
2282;DHT22;27486;48.77806476;9.16920056;2022-07-31T14:25:43;34.80;23.80
2282;DHT22;27486;48.77806476;9.16920056;2022-07-31T14:28:27;34.90;24.30
2282;DHT22;27486;48.77806476;9.16920056;2022-07-31T14:31:13;35.60;24.00
2282;DHT22;27486;48.77806476;9.16920056;2022-07-31T14:33:57;36.50;23.50
2282;DHT22;27486;48.77806476;9.16920056;2022-07-31T14:36:41;37.20;21.90
2282;DHT22;27486;48.77806476;9.16920056;2022-07-31T14:39:25;37.40;21.70
2282;DHT22;27486;48.77806476;9.16920056;2022-07-31T14:42:10;37.50;21.20
2282;DHT22;27486;48.77806476;9.16920056;2022-07-31T14:44:54;37.20;21.30
2282;DHT22;27486;48.77806476;9.16920056;2022-07-31T14:47:38;37.40;20.90
2282;DHT22;27486;48.77806476;9.16920056;2022-07-31T14:50:22;37.60;21.40
2282;DHT22;27486;48.77806476;9.16920056;2022-07-31T14:53:08;38.70;21.10
2282;DHT22;27486;48.77806476;9.16920056;2022-07-31T14:55:53;39.60;20.60
2282;DHT22;27486;48.77806476;9.16920056;2022-07-31T14:58:37;40.60;19.80
2282;DHT22;27486;48.77806476;9.16920056;2022-07-31T15:01:20;41.60;19.00
2282;DHT22;27486;48.77806476;9.16920056;2022-07-31T15:04:04;42.30;18.80
2282;DHT22;27486;48.77806476;9.16920056;2022-07-31T15:06:49;42.40;17.70
2282;DHT22;27486;48.77806476;9.16920056;2022-07-31T15:09:34;41.00;17.30
2282;DHT22;27486;48.77806476;9.16920056;2022-07-31T15:12:18;39.60;18.30
2282;DHT22;27486;48.77806476;9.16920056;2022-07-31T15:15:03;38.60;18.90
2282;DHT22;27486;48.77806476;9.16920056;2022-07-31T15:17:47;38.10;19.50
2282;DHT22;27486;48.77806476;9.16920056;2022-07-31T15:20:33;38.20;19.70
2282;DHT22;27486;48.77806476;9.16920056;2022-07-31T15:23:17;38.30;19.80